Terminal Aerodrome Forecast
Issued by NWS Raleigh/Durham, NC

Home | Current Version | Previous Version | Text Only | Print | Product List | Glossary On
Versions: 1 2 3 4 5 6 7 8 9 10 11 12 13 14 15 16 17 18 19 20 21 22 23
048
FTUS42 KRAH 270529
TAFRDU
TAF
KRDU 270529Z 2706/2806 VRB05KT P6SM SCT060 SCT250
     FM271600 VRB04KT P6SM FEW040 SCT080 PROB30 2718/2722 3SM TSRA
      BKN040CB=

USA.gov is the U.S. government's official web portal to all federal, state and local government web resources and services.